RPi & Temperatures at JO21ut

Last graph updates: Thursday 24 August 2017 04:02 CEST

Sunrise: 06:35 & Sunset: 20:42 The Sun is currently not visible. [-15.14 degrees] and 151230611 Km from the Earth
Moonrise: 9:37 & Moonset: 22:04 Waxing Crescent Moon The Moon is 386792 Km from the Earth
Find here more details on MARS.

04:48:33 up 11 days, 12:15, 0 users, load average: 0.68, 0.45, 0.39
Current CPU frequency is: 1000 Mhz
Current GPU temperature: 31.476°C
Current inside temperature is 22.4°C with a humidity of 67.5%
Second inside temperature is 22.4°C with a pressure of 1010.30 Hpa (29.6 inHg) and an uncorrected altitude of 24.67 m
ds18b20 now showing 22.3°C

All the sensors I use, DHT22 | BMP085 | MPU6050 | BH1750FVI | MMA7455 | HMC5883L | MPL3115A2 | DS1307 | HTU21 | AM2321 | DS3231 | INA219 , and it's current readout can be viewed here please be patient as it needs to read all sensors data. The page loads after about 10 seconds. In our forum more details can be found such as the used software/sources. Feel free to add yours also..


Pressure BMP085
Pressure BMP085
Pressure BMP085
Pressure BMP085
PI CPU Temp
Inet Volkel temp
Inside temp BMP085
Humidity BMP085
PI CPU Temp
Inet Volkel temp
Inside temp BMP085
Humidity BMP085
PI CPU Temp
Inet Volkel temp
Inside temp BMP085
Humidity BMP085
PI CPU Temp
Inet Volkel temp
Inside temp BMP085
Humidity BMP085
PI CPU Temp
Inet Volkel temp
Inside temp BMP085
Humidity BMP085
Inside light BH1750FV
Inside light BH1750FV
Inside light BH1750FV
Inside light BH1750FV
Inside light BH1750FV
Inside light BH1750FV
 

Sun & Moon height


Wijchen weather

Weer Widget
ScreenSaver yr.no

Sun Moon Earth


EHEH 240225Z AUTO 23010KT 9999 BKN037 16/14 Q1014 BLU EHEH 240225Z AUTO 23010KT 9999 BKN037 16/14 Q1014 BLU EHEH 240225Z AUTO 23010KT 9999 BKN037 16/14 Q1014 BLU

Weather data from Volkel [NL] EHVK


24 minutes ago, at 02:25 UTC, the wind was blowing at a speed of 5.1 meters per second (11.5 miles per hour/10 knots) from Southwest (230) in Volkel [EHVK], Netherlands. The temperature was 16 °C (61 °F) with a dewpoint of 14 °C (57 °F), and the pressure was 1,014 hPa (29.94 inHg). The relative humidity was 87.9%. There were broken clouds at a height of 1128 meter (3700 feet). The visibility was >10 kilometers (>6.2 miles).




View code:

Contact me  |  My Raspberry PI forum